Terminal Aerodrome Forecast
Issued by NWS

Home | Current Version | Previous Version | Text Only | Print | Product List | Glossary On
Versions: 1 2 3 4 5 6 7 8 9 10 11 12 13 14 15 16 17 18 19 20
000
FTUS41 KCAR 201159 AAA
TAFFVE
TAF AMD
KFVE 201159Z 2012/2112 34007KT 3SM -SN BR OVC003
     FM201500 35014G22KT P6SM VCSH OVC025
     FM202200 34012KT P6SM BKN025 OVC040=

USA.gov is the U.S. government's official web portal to all federal, state and local government web resources and services.